Tylertown, MS (39667)

5:26 AM CDT on August 30, 2015 (GMT -0500)
Smithburg Rd | | Change Station
CLOSE
Current Station
Personal Weather Station
Location: Progress, MS
Elevation: 300 ft
Nearby Weather Stations

Elev 300 ft 31.03 °N, 90.28 °W | Updated 9 seconds ago

Clear
Clear
67.7 °F
Feels Like 67.7 °F
N
0.0
Wind Variable Wind from SSW
Gusts 0.0 mph

Today
High -- | Low -- °F
--% Chance of Precip.
Yesterday
High -- | Low -- °F
Precip. -- in
6:35 AM 7:26 PM
Full, 99% visible
Pressure 30.01 in
Visibility 7.0 miles
Clouds Clear
Dew Point 66 °F
Humidity 93%
Rainfall 0.00 in
Snow Depth Not available.
UV 0 out of 12
Pollen 7.40 out of 12
Air Quality Not available.
Flu Activity Not available.
METAR KMCB 300953Z AUTO 00000KT 7SM CLR 20/19 A3002 RMK AO2 SLP160 T02000189 $
Pressure 30.01 in
Visibility 7.0 miles
Clouds Clear
Dew Point 66 °F
Humidity 93%
Rainfall 0.00 in
Snow Depth Not available.
UV 0 out of 12
Pollen 7.40 out of 12
Air Quality Not available.
Flu Activity Not available.
METAR KMCB 300953Z AUTO 00000KT 7SM CLR 20/19 A3002 RMK AO2 SLP160 T02000189 $

10-Day Weather Forecast

×

Almanac

Astronomy

Aug. 30, 2015 Rise Set
Actual Time
Civil Twilight
Nautical Twilight
Astronomical Twilight
Moon
Length of Visible Light
Length of Day
Tomorrow will be .
, % of the Moon is Illuminated

Today's Extremes

State Highs State Lows

Community

WunderPhotos

Upload Photos

1,850,923 photos uploaded!

WunderBlogs® & News

Nearby

Air Quality

  Air Quality AQ Index Pollutant
Not available.

Snow Depth

Station Depth Elevation

Earthquake Activity

City Distance Mag. Time & Date
Minimum magnitude displayed is 2.5.

Coastal Water Temperatures

Place Temperature

Stations

Nearby Weather Stations

Station Location Temp. Windchill Dew Point Humidity Wind Precip. Elev Updated Type